sensor_id;sensor_type;location;lat;lon;timestamp;P1;durP1;ratioP1;P2;durP2;ratioP2
56736;SDS011;42618;51.226;4.910;2023-07-16T00:00:40;4.82;;;1.10;;
56736;SDS011;42618;51.226;4.910;2023-07-16T00:03:07;5.78;;;1.10;;
56736;SDS011;42618;51.226;4.910;2023-07-16T00:05:35;6.32;;;0.88;;
56736;SDS011;42618;51.226;4.910;2023-07-16T00:08:04;10.10;;;1.10;;
56736;SDS011;42618;51.226;4.910;2023-07-16T00:10:35;6.13;;;1.07;;
56736;SDS011;42618;51.226;4.910;2023-07-16T00:13:03;4.93;;;0.90;;
56736;SDS011;42618;51.226;4.910;2023-07-16T00:15:30;7.05;;;1.08;;
56736;SDS011;42618;51.226;4.910;2023-07-16T00:17:57;9.65;;;1.08;;
56736;SDS011;42618;51.226;4.910;2023-07-16T00:20:23;9.30;;;1.10;;
56736;SDS011;42618;51.226;4.910;2023-07-16T00:22:50;5.07;;;1.00;;
56736;SDS011;42618;51.226;4.910;2023-07-16T00:25:18;4.68;;;0.80;;
56736;SDS011;42618;51.226;4.910;2023-07-16T00:27:44;6.45;;;1.10;;
56736;SDS011;42618;51.226;4.910;2023-07-16T00:30:14;6.85;;;1.00;;
56736;SDS011;42618;51.226;4.910;2023-07-16T00:32:40;10.60;;;1.20;;
56736;SDS011;42618;51.226;4.910;2023-07-16T00:35:07;6.20;;;1.10;;
56736;SDS011;42618;51.226;4.910;2023-07-16T00:37:35;6.50;;;1.33;;
56736;SDS011;42618;51.226;4.910;2023-07-16T00:40:02;10.48;;;1.30;;
56736;SDS011;42618;51.226;4.910;2023-07-16T00:42:30;8.02;;;1.90;;
56736;SDS011;42618;51.226;4.910;2023-07-16T00:44:57;7.20;;;1.42;;
56736;SDS011;42618;51.226;4.910;2023-07-16T00:47:23;8.93;;;1.40;;
56736;SDS011;42618;51.226;4.910;2023-07-16T00:49:50;6.60;;;1.00;;
56736;SDS011;42618;51.226;4.910;2023-07-16T00:52:18;9.40;;;1.38;;
56736;SDS011;42618;51.226;4.910;2023-07-16T00:54:48;4.63;;;1.13;;
56736;SDS011;42618;51.226;4.910;2023-07-16T00:57:16;7.10;;;1.45;;
56736;SDS011;42618;51.226;4.910;2023-07-16T00:59:43;10.70;;;1.90;;
56736;SDS011;42618;51.226;4.910;2023-07-16T01:02:09;7.63;;;1.60;;
56736;SDS011;42618;51.226;4.910;2023-07-16T01:04:36;13.55;;;1.80;;
56736;SDS011;42618;51.226;4.910;2023-07-16T01:07:04;10.82;;;1.52;;
56736;SDS011;42618;51.226;4.910;2023-07-16T01:09:34;5.22;;;2.22;;
56736;SDS011;42618;51.226;4.910;2023-07-16T01:12:07;7.35;;;1.48;;
56736;SDS011;42618;51.226;4.910;2023-07-16T01:14:35;5.85;;;1.27;;
56736;SDS011;42618;51.226;4.910;2023-07-16T01:17:04;6.45;;;1.25;;
56736;SDS011;42618;51.226;4.910;2023-07-16T01:19:33;6.07;;;1.35;;
56736;SDS011;42618;51.226;4.910;2023-07-16T01:30:32;7.00;;;1.77;;
56736;SDS011;42618;51.226;4.910;2023-07-16T01:33:00;7.85;;;1.30;;
56736;SDS011;42618;51.226;4.910;2023-07-16T01:35:29;6.68;;;1.60;;
56736;SDS011;42618;51.226;4.910;2023-07-16T01:37:56;9.85;;;1.48;;
56736;SDS011;42618;51.226;4.910;2023-07-16T01:40:23;6.57;;;1.10;;
56736;SDS011;42618;51.226;4.910;2023-07-16T01:42:50;2.80;;;0.75;;
56736;SDS011;42618;51.226;4.910;2023-07-16T01:45:17;4.90;;;1.20;;
56736;SDS011;42618;51.226;4.910;2023-07-16T01:50:26;7.65;;;1.58;;
56736;SDS011;42618;51.226;4.910;2023-07-16T01:52:52;5.75;;;1.13;;
56736;SDS011;42618;51.226;4.910;2023-07-16T01:55:19;3.90;;;1.20;;
56736;SDS011;42618;51.226;4.910;2023-07-16T01:57:46;9.35;;;1.45;;
56736;SDS011;42618;51.226;4.910;2023-07-16T02:00:13;9.85;;;1.50;;
56736;SDS011;42618;51.226;4.910;2023-07-16T02:02:46;6.97;;;1.42;;
56736;SDS011;42618;51.226;4.910;2023-07-16T02:05:14;4.72;;;1.35;;
56736;SDS011;42618;51.226;4.910;2023-07-16T02:07:41;6.95;;;1.42;;
56736;SDS011;42618;51.226;4.910;2023-07-16T02:10:08;6.78;;;1.55;;
56736;SDS011;42618;51.226;4.910;2023-07-16T02:12:35;7.90;;;1.40;;
56736;SDS011;42618;51.226;4.910;2023-07-16T02:15:02;9.50;;;1.67;;
56736;SDS011;42618;51.226;4.910;2023-07-16T02:17:34;3.45;;;0.85;;
56736;SDS011;42618;51.226;4.910;2023-07-16T02:20:01;6.70;;;1.63;;
56736;SDS011;42618;51.226;4.910;2023-07-16T02:22:28;5.75;;;1.15;;
56736;SDS011;42618;51.226;4.910;2023-07-16T02:24:56;6.28;;;0.93;;
56736;SDS011;42618;51.226;4.910;2023-07-16T02:27:22;3.85;;;1.38;;
56736;SDS011;42618;51.226;4.910;2023-07-16T02:29:49;5.15;;;1.17;;
56736;SDS011;42618;51.226;4.910;2023-07-16T02:32:16;4.32;;;1.13;;
56736;SDS011;42618;51.226;4.910;2023-07-16T02:34:43;5.60;;;1.70;;
56736;SDS011;42618;51.226;4.910;2023-07-16T02:37:09;3.95;;;1.52;;
56736;SDS011;42618;51.226;4.910;2023-07-16T02:39:37;10.57;;;1.90;;
56736;SDS011;42618;51.226;4.910;2023-07-16T02:42:08;4.65;;;1.83;;
56736;SDS011;42618;51.226;4.910;2023-07-16T02:44:34;8.00;;;1.75;;
56736;SDS011;42618;51.226;4.910;2023-07-16T02:47:04;10.65;;;1.90;;
56736;SDS011;42618;51.226;4.910;2023-07-16T02:49:31;9.82;;;2.15;;
56736;SDS011;42618;51.226;4.910;2023-07-16T02:51:58;5.67;;;2.17;;
56736;SDS011;42618;51.226;4.910;2023-07-16T02:54:25;9.00;;;1.92;;
56736;SDS011;42618;51.226;4.910;2023-07-16T02:56:51;7.40;;;2.08;;
56736;SDS011;42618;51.226;4.910;2023-07-16T02:59:18;10.13;;;2.28;;
56736;SDS011;42618;51.226;4.910;2023-07-16T03:01:45;4.73;;;1.80;;
56736;SDS011;42618;51.226;4.910;2023-07-16T03:04:13;12.77;;;2.42;;
56736;SDS011;42618;51.226;4.910;2023-07-16T03:06:39;11.13;;;2.72;;
56736;SDS011;42618;51.226;4.910;2023-07-16T03:09:06;4.35;;;1.45;;
56736;SDS011;42618;51.226;4.910;2023-07-16T03:11:33;6.32;;;2.00;;
56736;SDS011;42618;51.226;4.910;2023-07-16T03:14:00;4.13;;;1.45;;
56736;SDS011;42618;51.226;4.910;2023-07-16T03:16:27;8.55;;;1.80;;
56736;SDS011;42618;51.226;4.910;2023-07-16T03:18:54;6.28;;;1.85;;
56736;SDS011;42618;51.226;4.910;2023-07-16T03:21:20;7.30;;;1.80;;
56736;SDS011;42618;51.226;4.910;2023-07-16T03:23:47;6.28;;;1.45;;
56736;SDS011;42618;51.226;4.910;2023-07-16T03:26:14;6.43;;;1.63;;
56736;SDS011;42618;51.226;4.910;2023-07-16T03:28:42;7.82;;;1.92;;
56736;SDS011;42618;51.226;4.910;2023-07-16T03:31:10;10.75;;;2.00;;
56736;SDS011;42618;51.226;4.910;2023-07-16T03:33:39;6.03;;;2.53;;
56736;SDS011;42618;51.226;4.910;2023-07-16T03:36:07;9.90;;;2.38;;
56736;SDS011;42618;51.226;4.910;2023-07-16T03:38:34;7.78;;;2.03;;
56736;SDS011;42618;51.226;4.910;2023-07-16T03:41:01;4.38;;;1.20;;
56736;SDS011;42618;51.226;4.910;2023-07-16T03:43:28;5.97;;;2.40;;
56736;SDS011;42618;51.226;4.910;2023-07-16T03:46:04;3.83;;;1.83;;
56736;SDS011;42618;51.226;4.910;2023-07-16T03:48:34;8.30;;;2.50;;
56736;SDS011;42618;51.226;4.910;2023-07-16T03:51:02;6.63;;;2.65;;
56736;SDS011;42618;51.226;4.910;2023-07-16T03:53:28;6.18;;;2.28;;
56736;SDS011;42618;51.226;4.910;2023-07-16T03:55:55;7.85;;;2.70;;
56736;SDS011;42618;51.226;4.910;2023-07-16T03:58:22;6.75;;;2.03;;
56736;SDS011;42618;51.226;4.910;2023-07-16T04:00:50;8.35;;;2.00;;
56736;SDS011;42618;51.226;4.910;2023-07-16T04:03:17;10.17;;;3.00;;
56736;SDS011;42618;51.226;4.910;2023-07-16T04:05:44;6.40;;;2.40;;
56736;SDS011;42618;51.226;4.910;2023-07-16T04:08:10;11.02;;;3.05;;
56736;SDS011;42618;51.226;4.910;2023-07-16T04:10:37;8.15;;;2.33;;
56736;SDS011;42618;51.226;4.910;2023-07-16T04:13:04;8.75;;;2.72;;
56736;SDS011;42618;51.226;4.910;2023-07-16T04:15:31;9.90;;;2.45;;
56736;SDS011;42618;51.226;4.910;2023-07-16T04:17:57;11.77;;;2.72;;
56736;SDS011;42618;51.226;4.910;2023-07-16T04:20:24;4.97;;;1.42;;
56736;SDS011;42618;51.226;4.910;2023-07-16T04:22:51;6.63;;;1.98;;
56736;SDS011;42618;51.226;4.910;2023-07-16T04:25:18;10.73;;;2.92;;
56736;SDS011;42618;51.226;4.910;2023-07-16T04:27:45;12.53;;;3.17;;
56736;SDS011;42618;51.226;4.910;2023-07-16T04:30:12;10.18;;;2.65;;
56736;SDS011;42618;51.226;4.910;2023-07-16T04:32:38;10.05;;;3.03;;
56736;SDS011;42618;51.226;4.910;2023-07-16T04:35:05;12.15;;;2.60;;
56736;SDS011;42618;51.226;4.910;2023-07-16T04:37:32;7.85;;;2.60;;
56736;SDS011;42618;51.226;4.910;2023-07-16T04:39:59;8.50;;;2.70;;
56736;SDS011;42618;51.226;4.910;2023-07-16T04:42:26;11.60;;;2.45;;
56736;SDS011;42618;51.226;4.910;2023-07-16T04:44:52;5.88;;;2.20;;
56736;SDS011;42618;51.226;4.910;2023-07-16T04:47:19;9.98;;;3.08;;
56736;SDS011;42618;51.226;4.910;2023-07-16T04:49:46;7.15;;;2.78;;
56736;SDS011;42618;51.226;4.910;2023-07-16T04:52:13;8.73;;;2.22;;
56736;SDS011;42618;51.226;4.910;2023-07-16T04:54:39;8.27;;;2.63;;
56736;SDS011;42618;51.226;4.910;2023-07-16T04:57:06;10.38;;;2.67;;
56736;SDS011;42618;51.226;4.910;2023-07-16T04:59:34;7.60;;;3.08;;
56736;SDS011;42618;51.226;4.910;2023-07-16T05:02:04;9.57;;;2.65;;
56736;SDS011;42618;51.226;4.910;2023-07-16T05:04:33;9.23;;;3.10;;
56736;SDS011;42618;51.226;4.910;2023-07-16T05:11:55;9.03;;;2.53;;
56736;SDS011;42618;51.226;4.910;2023-07-16T05:14:22;12.63;;;3.50;;
56736;SDS011;42618;51.226;4.910;2023-07-16T05:16:49;9.13;;;2.83;;
56736;SDS011;42618;51.226;4.910;2023-07-16T05:19:16;9.48;;;2.63;;
56736;SDS011;42618;51.226;4.910;2023-07-16T05:21:43;7.45;;;2.55;;
56736;SDS011;42618;51.226;4.910;2023-07-16T05:24:09;8.20;;;3.92;;
56736;SDS011;42618;51.226;4.910;2023-07-16T05:26:37;9.90;;;3.42;;
56736;SDS011;42618;51.226;4.910;2023-07-16T05:29:04;8.10;;;2.97;;
56736;SDS011;42618;51.226;4.910;2023-07-16T05:31:31;9.38;;;2.97;;
56736;SDS011;42618;51.226;4.910;2023-07-16T05:33:58;8.32;;;3.20;;
56736;SDS011;42618;51.226;4.910;2023-07-16T05:36:24;10.32;;;3.50;;
56736;SDS011;42618;51.226;4.910;2023-07-16T05:38:51;8.73;;;3.55;;
56736;SDS011;42618;51.226;4.910;2023-07-16T05:41:18;6.78;;;3.40;;
56736;SDS011;42618;51.226;4.910;2023-07-16T05:43:47;7.00;;;3.10;;
56736;SDS011;42618;51.226;4.910;2023-07-16T05:46:13;7.03;;;3.40;;
56736;SDS011;42618;51.226;4.910;2023-07-16T05:48:41;8.93;;;2.80;;
56736;SDS011;42618;51.226;4.910;2023-07-16T05:51:07;7.47;;;2.92;;
56736;SDS011;42618;51.226;4.910;2023-07-16T05:53:34;10.88;;;3.10;;
56736;SDS011;42618;51.226;4.910;2023-07-16T05:56:01;5.47;;;2.67;;
56736;SDS011;42618;51.226;4.910;2023-07-16T05:58:28;7.78;;;2.25;;
56736;SDS011;42618;51.226;4.910;2023-07-16T06:00:54;9.70;;;3.42;;
56736;SDS011;42618;51.226;4.910;2023-07-16T06:03:21;6.47;;;2.45;;
56736;SDS011;42618;51.226;4.910;2023-07-16T06:05:48;8.13;;;3.67;;
56736;SDS011;42618;51.226;4.910;2023-07-16T06:08:15;9.00;;;3.60;;
56736;SDS011;42618;51.226;4.910;2023-07-16T06:10:41;12.48;;;2.97;;
56736;SDS011;42618;51.226;4.910;2023-07-16T06:13:08;7.95;;;3.25;;
56736;SDS011;42618;51.226;4.910;2023-07-16T06:15:35;9.77;;;3.22;;
56736;SDS011;42618;51.226;4.910;2023-07-16T06:18:02;8.75;;;4.15;;
56736;SDS011;42618;51.226;4.910;2023-07-16T06:20:29;7.93;;;3.35;;
56736;SDS011;42618;51.226;4.910;2023-07-16T06:22:56;10.10;;;4.07;;
56736;SDS011;42618;51.226;4.910;2023-07-16T06:25:23;10.65;;;4.43;;
56736;SDS011;42618;51.226;4.910;2023-07-16T06:27:49;9.45;;;3.65;;
56736;SDS011;42618;51.226;4.910;2023-07-16T06:30:16;14.23;;;3.97;;
56736;SDS011;42618;51.226;4.910;2023-07-16T06:32:43;9.52;;;3.08;;
56736;SDS011;42618;51.226;4.910;2023-07-16T06:35:10;9.50;;;3.88;;
56736;SDS011;42618;51.226;4.910;2023-07-16T06:37:37;14.32;;;4.18;;
56736;SDS011;42618;51.226;4.910;2023-07-16T06:40:04;13.30;;;4.03;;
56736;SDS011;42618;51.226;4.910;2023-07-16T06:44:58;9.65;;;2.90;;
56736;SDS011;42618;51.226;4.910;2023-07-16T06:47:25;11.95;;;4.03;;
56736;SDS011;42618;51.226;4.910;2023-07-16T06:49:52;13.15;;;4.00;;
56736;SDS011;42618;51.226;4.910;2023-07-16T06:52:21;12.05;;;3.33;;
56736;SDS011;42618;51.226;4.910;2023-07-16T06:54:50;8.63;;;3.85;;
56736;SDS011;42618;51.226;4.910;2023-07-16T06:57:17;9.98;;;4.15;;
56736;SDS011;42618;51.226;4.910;2023-07-16T06:59:44;12.43;;;3.65;;
56736;SDS011;42618;51.226;4.910;2023-07-16T07:02:11;10.45;;;3.42;;
56736;SDS011;42618;51.226;4.910;2023-07-16T07:04:38;11.75;;;3.95;;
56736;SDS011;42618;51.226;4.910;2023-07-16T07:07:06;12.90;;;4.47;;
56736;SDS011;42618;51.226;4.910;2023-07-16T07:09:33;12.45;;;4.18;;
56736;SDS011;42618;51.226;4.910;2023-07-16T07:12:00;9.18;;;3.90;;
56736;SDS011;42618;51.226;4.910;2023-07-16T07:14:27;9.70;;;3.67;;
56736;SDS011;42618;51.226;4.910;2023-07-16T07:16:54;7.80;;;3.05;;
56736;SDS011;42618;51.226;4.910;2023-07-16T07:19:20;11.70;;;3.85;;
56736;SDS011;42618;51.226;4.910;2023-07-16T07:21:47;8.48;;;3.03;;
56736;SDS011;42618;51.226;4.910;2023-07-16T07:24:14;8.73;;;3.20;;
56736;SDS011;42618;51.226;4.910;2023-07-16T07:26:41;9.18;;;3.92;;
56736;SDS011;42618;51.226;4.910;2023-07-16T07:29:08;7.33;;;3.30;;
56736;SDS011;42618;51.226;4.910;2023-07-16T07:31:35;10.43;;;3.88;;
56736;SDS011;42618;51.226;4.910;2023-07-16T07:34:01;13.50;;;3.95;;
56736;SDS011;42618;51.226;4.910;2023-07-16T07:36:29;4.72;;;2.28;;
56736;SDS011;42618;51.226;4.910;2023-07-16T07:38:55;6.68;;;2.95;;
56736;SDS011;42618;51.226;4.910;2023-07-16T07:41:22;14.25;;;4.38;;
56736;SDS011;42618;51.226;4.910;2023-07-16T07:43:49;16.77;;;4.22;;
56736;SDS011;42618;51.226;4.910;2023-07-16T07:46:16;5.05;;;2.65;;
56736;SDS011;42618;51.226;4.910;2023-07-16T07:48:43;8.55;;;3.88;;
56736;SDS011;42618;51.226;4.910;2023-07-16T07:51:09;12.00;;;4.35;;
56736;SDS011;42618;51.226;4.910;2023-07-16T07:53:36;8.55;;;3.15;;
56736;SDS011;42618;51.226;4.910;2023-07-16T07:56:03;11.20;;;3.08;;
56736;SDS011;42618;51.226;4.910;2023-07-16T07:58:30;9.97;;;4.00;;
56736;SDS011;42618;51.226;4.910;2023-07-16T08:00:59;6.22;;;2.75;;
56736;SDS011;42618;51.226;4.910;2023-07-16T08:03:33;11.27;;;3.60;;
56736;SDS011;42618;51.226;4.910;2023-07-16T08:06:00;12.45;;;3.83;;
56736;SDS011;42618;51.226;4.910;2023-07-16T08:08:27;11.18;;;3.35;;
56736;SDS011;42618;51.226;4.910;2023-07-16T08:10:55;14.35;;;3.67;;
56736;SDS011;42618;51.226;4.910;2023-07-16T08:13:22;8.32;;;3.20;;
56736;SDS011;42618;51.226;4.910;2023-07-16T08:15:49;5.90;;;2.80;;
56736;SDS011;42618;51.226;4.910;2023-07-16T08:18:15;9.52;;;3.13;;
56736;SDS011;42618;51.226;4.910;2023-07-16T08:20:42;12.80;;;3.17;;
56736;SDS011;42618;51.226;4.910;2023-07-16T08:23:09;9.05;;;3.47;;
56736;SDS011;42618;51.226;4.910;2023-07-16T08:25:36;13.02;;;3.60;;
56736;SDS011;42618;51.226;4.910;2023-07-16T08:28:03;9.35;;;2.70;;
56736;SDS011;42618;51.226;4.910;2023-07-16T08:30:31;7.83;;;3.67;;
56736;SDS011;42618;51.226;4.910;2023-07-16T08:32:58;10.10;;;3.20;;
56736;SDS011;42618;51.226;4.910;2023-07-16T08:35:25;11.27;;;2.25;;
56736;SDS011;42618;51.226;4.910;2023-07-16T08:37:52;7.95;;;3.40;;
56736;SDS011;42618;51.226;4.910;2023-07-16T08:40:18;9.25;;;4.22;;
56736;SDS011;42618;51.226;4.910;2023-07-16T08:42:47;5.65;;;2.60;;
56736;SDS011;42618;51.226;4.910;2023-07-16T08:45:15;14.38;;;3.97;;
56736;SDS011;42618;51.226;4.910;2023-07-16T08:47:42;7.93;;;3.30;;
56736;SDS011;42618;51.226;4.910;2023-07-16T08:50:09;10.73;;;3.33;;
56736;SDS011;42618;51.226;4.910;2023-07-16T08:52:37;7.65;;;3.20;;
56736;SDS011;42618;51.226;4.910;2023-07-16T08:55:06;9.07;;;4.18;;
56736;SDS011;42618;51.226;4.910;2023-07-16T08:57:33;6.20;;;3.25;;
56736;SDS011;42618;51.226;4.910;2023-07-16T09:00:00;9.00;;;3.00;;
56736;SDS011;42618;51.226;4.910;2023-07-16T09:04:55;5.97;;;3.00;;
56736;SDS011;42618;51.226;4.910;2023-07-16T09:07:22;5.03;;;2.63;;
56736;SDS011;42618;51.226;4.910;2023-07-16T09:09:55;5.70;;;2.70;;
56736;SDS011;42618;51.226;4.910;2023-07-16T09:12:25;8.75;;;3.42;;
56736;SDS011;42618;51.226;4.910;2023-07-16T09:14:52;8.68;;;5.85;;
56736;SDS011;42618;51.226;4.910;2023-07-16T09:17:22;9.77;;;2.53;;
56736;SDS011;42618;51.226;4.910;2023-07-16T09:19:53;6.78;;;2.22;;
56736;SDS011;42618;51.226;4.910;2023-07-16T09:22:20;5.53;;;2.30;;
56736;SDS011;42618;51.226;4.910;2023-07-16T09:24:47;9.82;;;3.03;;
56736;SDS011;42618;51.226;4.910;2023-07-16T09:27:14;5.50;;;2.65;;
56736;SDS011;42618;51.226;4.910;2023-07-16T09:29:41;6.60;;;2.63;;
56736;SDS011;42618;51.226;4.910;2023-07-16T09:32:08;7.75;;;2.10;;
56736;SDS011;42618;51.226;4.910;2023-07-16T09:34:35;7.57;;;2.23;;
56736;SDS011;42618;51.226;4.910;2023-07-16T09:37:01;6.47;;;3.15;;
56736;SDS011;42618;51.226;4.910;2023-07-16T09:39:29;5.97;;;2.97;;
56736;SDS011;42618;51.226;4.910;2023-07-16T09:41:57;8.82;;;2.65;;
56736;SDS011;42618;51.226;4.910;2023-07-16T09:44:24;6.30;;;2.45;;
56736;SDS011;42618;51.226;4.910;2023-07-16T09:46:51;5.50;;;2.38;;
56736;SDS011;42618;51.226;4.910;2023-07-16T09:49:18;7.88;;;2.85;;
56736;SDS011;42618;51.226;4.910;2023-07-16T09:51:45;5.68;;;2.75;;
56736;SDS011;42618;51.226;4.910;2023-07-16T09:54:12;5.45;;;2.53;;
56736;SDS011;42618;51.226;4.910;2023-07-16T09:56:43;5.45;;;2.25;;
56736;SDS011;42618;51.226;4.910;2023-07-16T09:59:13;7.20;;;2.85;;
56736;SDS011;42618;51.226;4.910;2023-07-16T10:01:42;4.45;;;2.10;;
56736;SDS011;42618;51.226;4.910;2023-07-16T10:04:12;8.18;;;2.78;;
56736;SDS011;42618;51.226;4.910;2023-07-16T10:07:05;8.63;;;3.08;;
56736;SDS011;42618;51.226;4.910;2023-07-16T10:09:32;7.95;;;2.60;;
56736;SDS011;42618;51.226;4.910;2023-07-16T10:12:18;5.40;;;2.90;;
56736;SDS011;42618;51.226;4.910;2023-07-16T10:14:46;5.95;;;2.22;;
56736;SDS011;42618;51.226;4.910;2023-07-16T10:17:21;8.05;;;3.22;;
56736;SDS011;42618;51.226;4.910;2023-07-16T10:22:37;8.60;;;2.50;;
56736;SDS011;42618;51.226;4.910;2023-07-16T10:27:45;8.52;;;2.80;;
56736;SDS011;42618;51.226;4.910;2023-07-16T10:30:13;5.63;;;2.70;;
56736;SDS011;42618;51.226;4.910;2023-07-16T10:32:40;5.65;;;2.28;;
56736;SDS011;42618;51.226;4.910;2023-07-16T10:35:08;6.63;;;2.42;;
56736;SDS011;42618;51.226;4.910;2023-07-16T10:37:36;9.45;;;2.38;;
56736;SDS011;42618;51.226;4.910;2023-07-16T10:40:04;9.93;;;2.75;;
56736;SDS011;42618;51.226;4.910;2023-07-16T10:44:59;8.27;;;2.67;;
56736;SDS011;42618;51.226;4.910;2023-07-16T10:47:30;5.88;;;2.80;;
56736;SDS011;42618;51.226;4.910;2023-07-16T10:49:59;11.15;;;2.90;;
56736;SDS011;42618;51.226;4.910;2023-07-16T10:52:26;7.47;;;2.80;;
56736;SDS011;42618;51.226;4.910;2023-07-16T10:54:53;6.70;;;2.30;;
56736;SDS011;42618;51.226;4.910;2023-07-16T10:57:26;9.75;;;3.13;;
56736;SDS011;42618;51.226;4.910;2023-07-16T10:59:55;7.43;;;2.55;;
56736;SDS011;42618;51.226;4.910;2023-07-16T11:02:24;11.90;;;2.88;;
56736;SDS011;42618;51.226;4.910;2023-07-16T11:04:52;8.15;;;2.88;;
56736;SDS011;42618;51.226;4.910;2023-07-16T11:07:20;10.25;;;2.92;;
56736;SDS011;42618;51.226;4.910;2023-07-16T11:09:51;9.18;;;2.70;;
56736;SDS011;42618;51.226;4.910;2023-07-16T11:12:23;6.20;;;2.83;;
56736;SDS011;42618;51.226;4.910;2023-07-16T11:14:51;5.90;;;2.80;;
56736;SDS011;42618;51.226;4.910;2023-07-16T11:17:19;7.82;;;2.88;;
56736;SDS011;42618;51.226;4.910;2023-07-16T11:19:48;5.88;;;2.53;;
56736;SDS011;42618;51.226;4.910;2023-07-16T11:22:16;8.38;;;2.67;;
56736;SDS011;42618;51.226;4.910;2023-07-16T11:24:50;4.80;;;2.53;;
56736;SDS011;42618;51.226;4.910;2023-07-16T11:29:53;6.90;;;2.03;;
56736;SDS011;42618;51.226;4.910;2023-07-16T11:32:28;6.38;;;2.72;;
56736;SDS011;42618;51.226;4.910;2023-07-16T11:35:01;5.53;;;2.35;;
56736;SDS011;42618;51.226;4.910;2023-07-16T11:37:30;8.88;;;2.50;;
56736;SDS011;42618;51.226;4.910;2023-07-16T11:40:00;4.47;;;2.15;;
56736;SDS011;42618;51.226;4.910;2023-07-16T11:42:34;3.03;;;1.58;;
56736;SDS011;42618;51.226;4.910;2023-07-16T11:45:03;10.38;;;2.33;;
56736;SDS011;42618;51.226;4.910;2023-07-16T11:47:31;4.40;;;1.92;;
56736;SDS011;42618;51.226;4.910;2023-07-16T11:49:58;4.90;;;2.37;;
56736;SDS011;42618;51.226;4.910;2023-07-16T11:52:29;7.93;;;2.97;;
56736;SDS011;42618;51.226;4.910;2023-07-16T11:54:57;6.05;;;2.45;;
56736;SDS011;42618;51.226;4.910;2023-07-16T11:57:27;7.28;;;2.53;;
56736;SDS011;42618;51.226;4.910;2023-07-16T11:59:54;6.53;;;2.78;;
56736;SDS011;42618;51.226;4.910;2023-07-16T12:02:21;7.35;;;3.15;;
56736;SDS011;42618;51.226;4.910;2023-07-16T12:04:48;9.75;;;3.08;;
56736;SDS011;42618;51.226;4.910;2023-07-16T12:07:15;11.23;;;2.35;;
56736;SDS011;42618;51.226;4.910;2023-07-16T12:09:42;8.20;;;2.58;;
56736;SDS011;42618;51.226;4.910;2023-07-16T12:12:08;10.95;;;3.38;;
56736;SDS011;42618;51.226;4.910;2023-07-16T12:14:36;6.18;;;2.53;;
56736;SDS011;42618;51.226;4.910;2023-07-16T12:17:02;5.43;;;1.85;;
56736;SDS011;42618;51.226;4.910;2023-07-16T12:19:29;7.07;;;3.03;;
56736;SDS011;42618;51.226;4.910;2023-07-16T12:21:56;8.48;;;2.75;;
56736;SDS011;42618;51.226;4.910;2023-07-16T12:24:25;4.68;;;1.60;;
56736;SDS011;42618;51.226;4.910;2023-07-16T12:26:51;6.10;;;2.10;;
56736;SDS011;42618;51.226;4.910;2023-07-16T12:29:18;2.97;;;1.60;;
56736;SDS011;42618;51.226;4.910;2023-07-16T12:31:45;4.78;;;1.75;;
56736;SDS011;42618;51.226;4.910;2023-07-16T12:34:11;6.32;;;1.73;;
56736;SDS011;42618;51.226;4.910;2023-07-16T12:36:38;4.63;;;1.17;;
56736;SDS011;42618;51.226;4.910;2023-07-16T12:39:05;3.05;;;0.93;;
56736;SDS011;42618;51.226;4.910;2023-07-16T12:41:32;4.45;;;1.20;;
56736;SDS011;42618;51.226;4.910;2023-07-16T12:43:58;4.05;;;1.20;;
56736;SDS011;42618;51.226;4.910;2023-07-16T12:46:25;3.13;;;1.67;;
56736;SDS011;42618;51.226;4.910;2023-07-16T12:48:52;3.70;;;1.60;;
56736;SDS011;42618;51.226;4.910;2023-07-16T12:51:19;4.15;;;1.70;;
56736;SDS011;42618;51.226;4.910;2023-07-16T12:53:45;3.58;;;1.70;;
56736;SDS011;42618;51.226;4.910;2023-07-16T12:56:12;3.70;;;1.65;;
56736;SDS011;42618;51.226;4.910;2023-07-16T12:58:39;6.50;;;1.73;;
56736;SDS011;42618;51.226;4.910;2023-07-16T13:01:06;4.03;;;1.73;;
56736;SDS011;42618;51.226;4.910;2023-07-16T13:06:00;3.93;;;1.60;;
56736;SDS011;42618;51.226;4.910;2023-07-16T13:08:30;6.10;;;2.05;;
56736;SDS011;42618;51.226;4.910;2023-07-16T13:10:57;7.18;;;1.83;;
56736;SDS011;42618;51.226;4.910;2023-07-16T13:13:24;2.87;;;2.10;;
56736;SDS011;42618;51.226;4.910;2023-07-16T13:15:50;6.05;;;2.10;;
56736;SDS011;42618;51.226;4.910;2023-07-16T13:18:17;4.50;;;1.50;;
56736;SDS011;42618;51.226;4.910;2023-07-16T13:20:44;4.80;;;2.10;;
56736;SDS011;42618;51.226;4.910;2023-07-16T13:23:11;4.93;;;2.13;;
56736;SDS011;42618;51.226;4.910;2023-07-16T13:25:38;3.42;;;2.13;;
56736;SDS011;42618;51.226;4.910;2023-07-16T13:28:06;4.13;;;1.93;;
56736;SDS011;42618;51.226;4.910;2023-07-16T13:30:33;4.22;;;1.65;;
56736;SDS011;42618;51.226;4.910;2023-07-16T13:33:00;6.20;;;2.10;;
56736;SDS011;42618;51.226;4.910;2023-07-16T13:35:27;5.93;;;1.95;;
56736;SDS011;42618;51.226;4.910;2023-07-16T13:37:54;4.53;;;1.47;;
56736;SDS011;42618;51.226;4.910;2023-07-16T13:40:21;6.07;;;1.92;;
56736;SDS011;42618;51.226;4.910;2023-07-16T13:42:48;2.90;;;1.02;;
56736;SDS011;42618;51.226;4.910;2023-07-16T13:45:14;4.75;;;2.10;;
56736;SDS011;42618;51.226;4.910;2023-07-16T13:47:41;6.75;;;2.22;;
56736;SDS011;42618;51.226;4.910;2023-07-16T13:50:09;4.82;;;1.50;;
56736;SDS011;42618;51.226;4.910;2023-07-16T13:52:35;3.20;;;1.90;;
56736;SDS011;42618;51.226;4.910;2023-07-16T13:55:03;6.47;;;1.92;;
56736;SDS011;42618;51.226;4.910;2023-07-16T13:57:31;5.47;;;1.38;;
56736;SDS011;42618;51.226;4.910;2023-07-16T13:59:57;5.00;;;1.58;;
56736;SDS011;42618;51.226;4.910;2023-07-16T14:02:24;4.87;;;1.90;;
56736;SDS011;42618;51.226;4.910;2023-07-16T14:04:51;3.25;;;1.23;;
56736;SDS011;42618;51.226;4.910;2023-07-16T14:07:18;5.57;;;1.30;;
56736;SDS011;42618;51.226;4.910;2023-07-16T14:09:45;4.90;;;1.35;;
56736;SDS011;42618;51.226;4.910;2023-07-16T14:12:12;3.08;;;1.70;;
56736;SDS011;42618;51.226;4.910;2023-07-16T14:14:38;4.03;;;1.35;;
56736;SDS011;42618;51.226;4.910;2023-07-16T14:17:05;4.60;;;1.38;;
56736;SDS011;42618;51.226;4.910;2023-07-16T14:19:32;2.63;;;1.07;;
56736;SDS011;42618;51.226;4.910;2023-07-16T14:21:59;2.58;;;1.42;;
56736;SDS011;42618;51.226;4.910;2023-07-16T14:24:26;2.65;;;1.83;;
56736;SDS011;42618;51.226;4.910;2023-07-16T14:26:52;4.27;;;1.73;;
56736;SDS011;42618;51.226;4.910;2023-07-16T14:29:19;5.47;;;1.30;;
56736;SDS011;42618;51.226;4.910;2023-07-16T14:31:46;3.83;;;1.70;;
56736;SDS011;42618;51.226;4.910;2023-07-16T14:34:13;4.40;;;1.27;;
56736;SDS011;42618;51.226;4.910;2023-07-16T14:36:40;4.03;;;2.00;;
56736;SDS011;42618;51.226;4.910;2023-07-16T14:39:08;2.28;;;1.08;;
56736;SDS011;42618;51.226;4.910;2023-07-16T14:41:35;3.45;;;0.68;;
56736;SDS011;42618;51.226;4.910;2023-07-16T14:44:02;3.60;;;1.15;;
56736;SDS011;42618;51.226;4.910;2023-07-16T14:46:29;3.58;;;0.93;;
56736;SDS011;42618;51.226;4.910;2023-07-16T14:48:56;3.85;;;0.70;;
56736;SDS011;42618;51.226;4.910;2023-07-16T14:51:24;3.25;;;1.13;;
56736;SDS011;42618;51.226;4.910;2023-07-16T14:53:51;5.83;;;0.93;;
56736;SDS011;42618;51.226;4.910;2023-07-16T14:56:18;3.65;;;1.13;;
56736;SDS011;42618;51.226;4.910;2023-07-16T14:58:45;3.73;;;1.30;;
56736;SDS011;42618;51.226;4.910;2023-07-16T15:01:12;4.20;;;0.75;;
56736;SDS011;42618;51.226;4.910;2023-07-16T15:03:39;6.22;;;0.88;;
56736;SDS011;42618;51.226;4.910;2023-07-16T15:06:09;3.80;;;0.85;;
56736;SDS011;42618;51.226;4.910;2023-07-16T15:08:36;6.20;;;1.60;;
56736;SDS011;42618;51.226;4.910;2023-07-16T15:11:03;3.90;;;0.93;;
56736;SDS011;42618;51.226;4.910;2023-07-16T15:13:30;4.95;;;0.95;;
56736;SDS011;42618;51.226;4.910;2023-07-16T15:15:57;2.03;;;0.57;;
56736;SDS011;42618;51.226;4.910;2023-07-16T15:18:24;2.15;;;1.13;;
56736;SDS011;42618;51.226;4.910;2023-07-16T15:20:56;1.70;;;0.80;;